sensor_id;sensor_type;location;lat;lon;timestamp;pressure;altitude;pressure_sealevel;temperature;humidity
69247;BME280;56358;56.328;43.992;2022-08-14T00:01:54;101254.38;;;17.67;80.66
69247;BME280;56358;56.328;43.992;2022-08-14T00:03:54;101275.47;;;17.73;80.86
69247;BME280;56358;56.328;43.992;2022-08-14T00:05:56;101264.81;;;17.62;81.00
69247;BME280;56358;56.328;43.992;2022-08-14T00:07:57;101192.31;;;17.16;81.37
69247;BME280;56358;56.328;43.992;2022-08-14T00:09:58;101281.47;;;17.67;80.60
69247;BME280;56358;56.328;43.992;2022-08-14T00:11:59;101214.94;;;17.25;80.56
69247;BME280;56358;56.328;43.992;2022-08-14T00:14:00;101261.38;;;17.59;80.20
69247;BME280;56358;56.328;43.992;2022-08-14T00:16:01;101258.41;;;17.53;80.64
69247;BME280;56358;56.328;43.992;2022-08-14T00:18:03;101270.50;;;17.58;80.30
69247;BME280;56358;56.328;43.992;2022-08-14T00:20:05;101267.97;;;17.57;80.18
69247;BME280;56358;56.328;43.992;2022-08-14T00:22:07;101250.88;;;17.37;80.23
69247;BME280;56358;56.328;43.992;2022-08-14T00:24:08;101283.06;;;17.59;80.01
69247;BME280;56358;56.328;43.992;2022-08-14T00:26:09;101273.53;;;17.55;79.98
69247;BME280;56358;56.328;43.992;2022-08-14T00:28:11;101272.53;;;17.56;80.31
69247;BME280;56358;56.328;43.992;2022-08-14T00:30:13;101271.66;;;17.56;80.40
69247;BME280;56358;56.328;43.992;2022-08-14T00:32:14;101281.66;;;17.55;80.00
69247;BME280;56358;56.328;43.992;2022-08-14T00:34:15;101249.59;;;17.41;79.93
69247;BME280;56358;56.328;43.992;2022-08-14T00:36:16;101286.50;;;17.52;79.62
69247;BME280;56358;56.328;43.992;2022-08-14T00:38:17;101266.16;;;17.38;79.88
69247;BME280;56358;56.328;43.992;2022-08-14T00:40:19;101286.09;;;17.47;80.06
69247;BME280;56358;56.328;43.992;2022-08-14T00:42:21;101215.84;;;17.06;79.88
69247;BME280;56358;56.328;43.992;2022-08-14T00:44:22;101271.97;;;17.33;80.12
69247;BME280;56358;56.328;43.992;2022-08-14T00:46:23;101277.69;;;17.40;80.15
69247;BME280;56358;56.328;43.992;2022-08-14T00:48:24;101287.81;;;17.48;80.58
69247;BME280;56358;56.328;43.992;2022-08-14T00:50:25;101277.56;;;17.41;80.34
69247;BME280;56358;56.328;43.992;2022-08-14T00:52:28;101278.69;;;17.39;80.38
69247;BME280;56358;56.328;43.992;2022-08-14T00:54:28;101299.78;;;17.45;80.79
69247;BME280;56358;56.328;43.992;2022-08-14T00:56:30;101290.53;;;17.38;80.99
69247;BME280;56358;56.328;43.992;2022-08-14T00:58:31;101257.75;;;17.21;81.51
69247;BME280;56358;56.328;43.992;2022-08-14T01:00:32;101279.53;;;17.39;81.79
69247;BME280;56358;56.328;43.992;2022-08-14T01:02:35;101291.38;;;17.48;81.58
69247;BME280;56358;56.328;43.992;2022-08-14T01:04:37;101293.94;;;17.50;81.76
69247;BME280;56358;56.328;43.992;2022-08-14T01:06:38;101271.13;;;17.33;81.96
69247;BME280;56358;56.328;43.992;2022-08-14T01:08:40;101298.09;;;17.44;82.08
69247;BME280;56358;56.328;43.992;2022-08-14T01:10:43;101291.81;;;17.43;81.99
69247;BME280;56358;56.328;43.992;2022-08-14T01:12:50;101261.91;;;17.25;81.90
69247;BME280;56358;56.328;43.992;2022-08-14T01:14:51;101276.56;;;17.33;81.67
69247;BME280;56358;56.328;43.992;2022-08-14T01:16:54;101281.69;;;17.36;81.94
69247;BME280;56358;56.328;43.992;2022-08-14T01:18:55;101295.97;;;17.38;82.05
69247;BME280;56358;56.328;43.992;2022-08-14T01:21:16;101308.22;;;17.42;81.72
69247;BME280;56358;56.328;43.992;2022-08-14T01:23:17;101285.53;;;17.33;81.78
69247;BME280;56358;56.328;43.992;2022-08-14T01:25:17;101300.38;;;17.39;82.23
69247;BME280;56358;56.328;43.992;2022-08-14T01:27:21;101296.38;;;17.33;82.03
69247;BME280;56358;56.328;43.992;2022-08-14T01:29:22;101292.53;;;17.36;82.13
69247;BME280;56358;56.328;43.992;2022-08-14T01:31:26;101313.81;;;17.31;82.48
69247;BME280;56358;56.328;43.992;2022-08-14T01:33:28;101288.72;;;17.19;83.05
69247;BME280;56358;56.328;43.992;2022-08-14T01:35:29;101306.94;;;17.26;83.02
69247;BME280;56358;56.328;43.992;2022-08-14T01:37:30;101301.66;;;17.25;83.11
69247;BME280;56358;56.328;43.992;2022-08-14T01:39:31;101278.56;;;17.11;83.28
69247;BME280;56358;56.328;43.992;2022-08-14T01:41:32;101321.34;;;17.27;83.37
69247;BME280;56358;56.328;43.992;2022-08-14T01:45:49;101299.81;;;17.16;83.41
69247;BME280;56358;56.328;43.992;2022-08-14T01:47:52;101235.22;;;16.82;83.89
69247;BME280;56358;56.328;43.992;2022-08-14T01:49:53;101314.22;;;17.26;83.25
69247;BME280;56358;56.328;43.992;2022-08-14T01:51:54;101259.19;;;16.96;83.50
69247;BME280;56358;56.328;43.992;2022-08-14T01:54:03;101257.31;;;16.97;82.95
69247;BME280;56358;56.328;43.992;2022-08-14T01:56:05;101237.47;;;16.86;83.37
69247;BME280;56358;56.328;43.992;2022-08-14T01:58:06;101297.38;;;17.22;83.45
69247;BME280;56358;56.328;43.992;2022-08-14T02:00:12;101239.94;;;16.89;83.83
69247;BME280;56358;56.328;43.992;2022-08-14T02:02:18;101287.69;;;17.20;83.74
69247;BME280;56358;56.328;43.992;2022-08-14T02:04:20;101318.63;;;17.37;83.82
69247;BME280;56358;56.328;43.992;2022-08-14T02:06:21;101253.63;;;16.98;83.47
69247;BME280;56358;56.328;43.992;2022-08-14T02:08:24;101318.63;;;17.37;83.61
69247;BME280;56358;56.328;43.992;2022-08-14T02:10:27;101311.50;;;17.36;83.49
69247;BME280;56358;56.328;43.992;2022-08-14T02:12:28;101199.28;;;16.70;83.76
69247;BME280;56358;56.328;43.992;2022-08-14T02:14:33;101259.63;;;17.01;84.06
69247;BME280;56358;56.328;43.992;2022-08-14T02:16:40;101309.22;;;17.31;84.14
69247;BME280;56358;56.328;43.992;2022-08-14T02:18:41;101328.19;;;17.41;84.09
69247;BME280;56358;56.328;43.992;2022-08-14T02:20:42;101274.72;;;17.14;84.16
69247;BME280;56358;56.328;43.992;2022-08-14T02:22:44;101317.34;;;17.41;83.72
69247;BME280;56358;56.328;43.992;2022-08-14T02:24:46;101330.47;;;17.46;83.80
69247;BME280;56358;56.328;43.992;2022-08-14T02:26:46;101324.91;;;17.47;83.38
69247;BME280;56358;56.328;43.992;2022-08-14T02:28:52;101319.78;;;17.44;84.07
69247;BME280;56358;56.328;43.992;2022-08-14T02:30:53;101327.91;;;17.54;83.56
69247;BME280;56358;56.328;43.992;2022-08-14T02:32:54;101334.00;;;17.56;83.77
69247;BME280;56358;56.328;43.992;2022-08-14T02:34:54;101322.63;;;17.52;83.66
69247;BME280;56358;56.328;43.992;2022-08-14T02:37:03;101260.47;;;17.21;83.43
69247;BME280;56358;56.328;43.992;2022-08-14T02:39:07;101328.75;;;17.64;82.97
69247;BME280;56358;56.328;43.992;2022-08-14T02:41:10;101321.63;;;17.63;83.05
69247;BME280;56358;56.328;43.992;2022-08-14T02:43:11;101335.59;;;17.68;83.04
69247;BME280;56358;56.328;43.992;2022-08-14T02:45:13;101337.28;;;17.79;82.58
69247;BME280;56358;56.328;43.992;2022-08-14T02:47:14;101322.16;;;17.67;82.45
69247;BME280;56358;56.328;43.992;2022-08-14T02:49:15;101324.56;;;17.80;82.13
69247;BME280;56358;56.328;43.992;2022-08-14T02:51:16;101329.25;;;17.87;81.93
69247;BME280;56358;56.328;43.992;2022-08-14T02:53:17;101353.53;;;17.99;81.67
69247;BME280;56358;56.328;43.992;2022-08-14T02:55:18;101313.97;;;17.86;81.78
69247;BME280;56358;56.328;43.992;2022-08-14T02:57:21;101335.81;;;18.04;81.64
69247;BME280;56358;56.328;43.992;2022-08-14T02:59:25;101334.53;;;18.08;81.70
69247;BME280;56358;56.328;43.992;2022-08-14T03:01:28;101339.50;;;18.13;81.42
69247;BME280;56358;56.328;43.992;2022-08-14T03:03:30;101364.03;;;18.21;81.16
69247;BME280;56358;56.328;43.992;2022-08-14T03:05:31;101346.28;;;18.27;80.72
69247;BME280;56358;56.328;43.992;2022-08-14T03:07:32;101325.75;;;18.24;80.43
69247;BME280;56358;56.328;43.992;2022-08-14T03:09:32;101333.44;;;18.29;80.47
69247;BME280;56358;56.328;43.992;2022-08-14T03:11:33;101352.53;;;18.37;80.71
69247;BME280;56358;56.328;43.992;2022-08-14T03:13:36;101345.53;;;18.45;80.67
69247;BME280;56358;56.328;43.992;2022-08-14T03:15:37;101357.31;;;18.53;80.43
69247;BME280;56358;56.328;43.992;2022-08-14T03:17:46;101343.59;;;18.55;80.13
69247;BME280;56358;56.328;43.992;2022-08-14T03:19:52;101301.44;;;18.33;80.01
69247;BME280;56358;56.328;43.992;2022-08-14T03:21:52;101355.41;;;18.64;79.53
69247;BME280;56358;56.328;43.992;2022-08-14T03:23:54;101350.69;;;18.66;79.58
69247;BME280;56358;56.328;43.992;2022-08-14T03:26:12;101354.19;;;18.76;79.67
69247;BME280;56358;56.328;43.992;2022-08-14T03:28:14;101352.19;;;18.78;79.02
69247;BME280;56358;56.328;43.992;2022-08-14T03:30:14;101347.63;;;18.79;79.49
69247;BME280;56358;56.328;43.992;2022-08-14T03:32:15;101327.75;;;18.78;79.13
69247;BME280;56358;56.328;43.992;2022-08-14T03:34:17;101355.13;;;18.95;78.99
69247;BME280;56358;56.328;43.992;2022-08-14T03:36:19;101357.69;;;18.96;79.12
69247;BME280;56358;56.328;43.992;2022-08-14T03:38:20;101299.88;;;18.76;78.94
69247;BME280;56358;56.328;43.992;2022-08-14T03:40:21;101282.78;;;18.66;78.68
69247;BME280;56358;56.328;43.992;2022-08-14T03:42:24;101337.59;;;19.07;78.39
69247;BME280;56358;56.328;43.992;2022-08-14T03:44:25;101333.38;;;19.13;77.97
69247;BME280;56358;56.328;43.992;2022-08-14T03:46:27;101284.81;;;18.91;77.49
69247;BME280;56358;56.328;43.992;2022-08-14T03:48:29;101351.56;;;19.30;76.34
69247;BME280;56358;56.328;43.992;2022-08-14T03:50:30;101351.16;;;19.43;75.92
69247;BME280;56358;56.328;43.992;2022-08-14T03:52:31;101349.53;;;19.50;75.12
69247;BME280;56358;56.328;43.992;2022-08-14T03:54:33;101354.19;;;19.58;74.55
69247;BME280;56358;56.328;43.992;2022-08-14T03:56:35;101354.63;;;19.71;73.66
69247;BME280;56358;56.328;43.992;2022-08-14T03:58:47;101363.59;;;19.82;72.39
69247;BME280;56358;56.328;43.992;2022-08-14T04:00:48;101311.88;;;19.64;71.87
69247;BME280;56358;56.328;43.992;2022-08-14T04:02:49;101353.88;;;20.05;71.53
69247;BME280;56358;56.328;43.992;2022-08-14T04:04:49;101357.16;;;20.17;71.51
69247;BME280;56358;56.328;43.992;2022-08-14T04:06:50;101359.94;;;20.25;71.38
69247;BME280;56358;56.328;43.992;2022-08-14T04:08:51;101293.81;;;19.99;71.75
69247;BME280;56358;56.328;43.992;2022-08-14T04:10:52;101317.53;;;20.15;71.66
69247;BME280;56358;56.328;43.992;2022-08-14T04:12:54;101357.34;;;20.50;70.88
69247;BME280;56358;56.328;43.992;2022-08-14T04:14:59;101362.31;;;20.55;70.01
69247;BME280;56358;56.328;43.992;2022-08-14T04:19:00;101350.50;;;20.81;68.87
69247;BME280;56358;56.328;43.992;2022-08-14T04:21:04;101320.97;;;20.68;68.69
69247;BME280;56358;56.328;43.992;2022-08-14T04:23:06;101347.81;;;20.97;68.08
69247;BME280;56358;56.328;43.992;2022-08-14T04:25:07;101348.16;;;21.02;67.80
69247;BME280;56358;56.328;43.992;2022-08-14T04:27:10;101346.31;;;21.11;67.01
69247;BME280;56358;56.328;43.992;2022-08-14T04:29:11;101345.81;;;21.16;67.27
69247;BME280;56358;56.328;43.992;2022-08-14T04:31:13;101343.44;;;21.37;67.02
69247;BME280;56358;56.328;43.992;2022-08-14T04:33:13;101326.53;;;21.34;66.42
69247;BME280;56358;56.328;43.992;2022-08-14T04:35:15;101345.66;;;21.50;66.01
69247;BME280;56358;56.328;43.992;2022-08-14T04:37:20;101336.97;;;21.63;65.43
69247;BME280;56358;56.328;43.992;2022-08-14T04:39:39;101318.03;;;21.62;64.36
69247;BME280;56358;56.328;43.992;2022-08-14T04:42:01;101331.00;;;21.76;63.64
69247;BME280;56358;56.328;43.992;2022-08-14T04:44:40;101266.88;;;21.47;63.30
69247;BME280;56358;56.328;43.992;2022-08-14T04:46:40;101326.53;;;21.83;62.55
69247;BME280;56358;56.328;43.992;2022-08-14T04:49:03;101327.56;;;21.90;62.65
69247;BME280;56358;56.328;43.992;2022-08-14T04:51:09;101320.41;;;21.89;62.61
69247;BME280;56358;56.328;43.992;2022-08-14T04:53:16;101347.47;;;22.07;63.21
69247;BME280;56358;56.328;43.992;2022-08-14T04:55:17;101336.06;;;22.04;64.67
69247;BME280;56358;56.328;43.992;2022-08-14T04:57:17;101354.16;;;22.05;64.83
69247;BME280;56358;56.328;43.992;2022-08-14T04:59:18;101344.94;;;21.98;65.22
69247;BME280;56358;56.328;43.992;2022-08-14T05:01:19;101354.81;;;22.07;64.38
69247;BME280;56358;56.328;43.992;2022-08-14T05:03:21;101299.44;;;21.82;64.10
69247;BME280;56358;56.328;43.992;2022-08-14T05:05:23;101352.59;;;22.19;63.90
69247;BME280;56358;56.328;43.992;2022-08-14T05:07:24;101356.84;;;22.21;64.65
69247;BME280;56358;56.328;43.992;2022-08-14T05:09:25;101358.38;;;22.24;65.01
69247;BME280;56358;56.328;43.992;2022-08-14T05:11:26;101355.97;;;22.29;63.92
69247;BME280;56358;56.328;43.992;2022-08-14T05:13:29;101355.44;;;22.34;62.96
69247;BME280;56358;56.328;43.992;2022-08-14T05:15:33;101352.03;;;22.40;62.83
69247;BME280;56358;56.328;43.992;2022-08-14T05:17:41;101330.91;;;22.17;62.57
69247;BME280;56358;56.328;43.992;2022-08-14T05:19:42;101302.63;;;22.02;62.85
69247;BME280;56358;56.328;43.992;2022-08-14T05:21:43;101370.47;;;22.30;62.89
69247;BME280;56358;56.328;43.992;2022-08-14T05:23:44;101308.06;;;22.10;62.47
69247;BME280;56358;56.328;43.992;2022-08-14T05:25:46;101350.31;;;22.39;62.30
69247;BME280;56358;56.328;43.992;2022-08-14T05:27:47;101356.44;;;22.49;62.02
69247;BME280;56358;56.328;43.992;2022-08-14T05:29:48;101359.63;;;22.61;61.51
69247;BME280;56358;56.328;43.992;2022-08-14T05:31:49;101339.31;;;22.55;61.12
69247;BME280;56358;56.328;43.992;2022-08-14T05:33:49;101354.59;;;22.73;60.32
69247;BME280;56358;56.328;43.992;2022-08-14T05:35:52;101353.53;;;22.82;60.02
69247;BME280;56358;56.328;43.992;2022-08-14T05:37:52;101353.00;;;22.87;59.36
69247;BME280;56358;56.328;43.992;2022-08-14T05:39:53;101349.03;;;22.98;58.89
69247;BME280;56358;56.328;43.992;2022-08-14T05:41:54;101350.16;;;23.03;57.27
69247;BME280;56358;56.328;43.992;2022-08-14T05:43:56;101347.91;;;23.15;57.51
69247;BME280;56358;56.328;43.992;2022-08-14T05:45:57;101356.84;;;23.32;55.98
69247;BME280;56358;56.328;43.992;2022-08-14T05:47:59;101358.34;;;23.35;54.13
69247;BME280;56358;56.328;43.992;2022-08-14T05:49:59;101351.31;;;23.40;53.34
69247;BME280;56358;56.328;43.992;2022-08-14T05:52:01;101340.72;;;23.37;53.12
69247;BME280;56358;56.328;43.992;2022-08-14T05:54:02;101348.25;;;23.58;53.28
69247;BME280;56358;56.328;43.992;2022-08-14T05:56:03;101364.03;;;23.71;53.99
69247;BME280;56358;56.328;43.992;2022-08-14T05:58:06;101348.28;;;23.73;55.07
69247;BME280;56358;56.328;43.992;2022-08-14T06:00:07;101342.34;;;23.85;55.09
69247;BME280;56358;56.328;43.992;2022-08-14T06:02:09;101348.47;;;23.87;54.60
69247;BME280;56358;56.328;43.992;2022-08-14T06:04:10;101351.00;;;23.97;53.30
69247;BME280;56358;56.328;43.992;2022-08-14T06:06:11;101340.88;;;23.97;53.85
69247;BME280;56358;56.328;43.992;2022-08-14T06:10:16;101349.00;;;24.05;52.48
69247;BME280;56358;56.328;43.992;2022-08-14T06:12:19;101328.72;;;24.00;51.84
69247;BME280;56358;56.328;43.992;2022-08-14T06:14:20;101345.91;;;24.08;51.65
69247;BME280;56358;56.328;43.992;2022-08-14T06:16:21;101305.53;;;23.87;52.15
69247;BME280;56358;56.328;43.992;2022-08-14T06:18:22;101303.78;;;23.95;52.20
69247;BME280;56358;56.328;43.992;2022-08-14T06:20:23;101343.09;;;24.17;49.34
69247;BME280;56358;56.328;43.992;2022-08-14T06:22:24;101350.53;;;24.23;49.01
69247;BME280;56358;56.328;43.992;2022-08-14T06:24:25;101320.88;;;24.12;48.96
69247;BME280;56358;56.328;43.992;2022-08-14T06:26:26;101342.50;;;24.21;48.15
69247;BME280;56358;56.328;43.992;2022-08-14T06:28:27;101348.56;;;24.32;48.48
69247;BME280;56358;56.328;43.992;2022-08-14T06:30:30;101354.59;;;24.42;48.51
69247;BME280;56358;56.328;43.992;2022-08-14T06:32:31;101363.94;;;24.48;48.01
69247;BME280;56358;56.328;43.992;2022-08-14T06:34:32;101345.28;;;24.58;48.30
69247;BME280;56358;56.328;43.992;2022-08-14T06:36:32;101349.03;;;24.65;47.13
69247;BME280;56358;56.328;43.992;2022-08-14T06:38:36;101282.72;;;24.25;47.46
69247;BME280;56358;56.328;43.992;2022-08-14T06:40:37;101335.00;;;24.60;46.21
69247;BME280;56358;56.328;43.992;2022-08-14T06:42:38;101354.78;;;24.70;46.62
69247;BME280;56358;56.328;43.992;2022-08-14T06:44:39;101336.63;;;24.69;46.67
69247;BME280;56358;56.328;43.992;2022-08-14T06:46:41;101360.06;;;24.72;47.71
69247;BME280;56358;56.328;43.992;2022-08-14T06:48:42;101349.09;;;24.72;47.28
69247;BME280;56358;56.328;43.992;2022-08-14T06:50:44;101355.91;;;24.76;48.20
69247;BME280;56358;56.328;43.992;2022-08-14T06:52:45;101346.38;;;24.72;47.76
69247;BME280;56358;56.328;43.992;2022-08-14T06:54:45;101302.44;;;24.50;45.40
69247;BME280;56358;56.328;43.992;2022-08-14T06:56:46;101343.69;;;24.79;46.13
69247;BME280;56358;56.328;43.992;2022-08-14T06:58:47;101250.47;;;24.27;45.86
69247;BME280;56358;56.328;43.992;2022-08-14T07:00:48;101333.38;;;24.81;44.61
69247;BME280;56358;56.328;43.992;2022-08-14T07:03:07;101343.84;;;24.92;43.38
69247;BME280;56358;56.328;43.992;2022-08-14T07:05:26;101214.84;;;24.27;42.92
69247;BME280;56358;56.328;43.992;2022-08-14T07:07:45;101338.31;;;25.07;43.19
69247;BME280;56358;56.328;43.992;2022-08-14T07:09:46;101286.19;;;24.85;42.73
69247;BME280;56358;56.328;43.992;2022-08-14T07:11:47;101346.47;;;25.22;42.30
69247;BME280;56358;56.328;43.992;2022-08-14T07:13:48;101353.34;;;25.33;41.84
69247;BME280;56358;56.328;43.992;2022-08-14T07:15:50;101339.97;;;25.45;40.83
69247;BME280;56358;56.328;43.992;2022-08-14T07:17:51;101332.34;;;25.40;41.00
69247;BME280;56358;56.328;43.992;2022-08-14T07:19:52;101344.47;;;25.52;40.85
69247;BME280;56358;56.328;43.992;2022-08-14T07:21:54;101339.63;;;25.54;41.73
69247;BME280;56358;56.328;43.992;2022-08-14T07:23:55;101325.31;;;25.59;40.98
69247;BME280;56358;56.328;43.992;2022-08-14T07:25:57;101337.03;;;25.74;41.33
69247;BME280;56358;56.328;43.992;2022-08-14T07:27:59;101337.09;;;25.81;41.25
69247;BME280;56358;56.328;43.992;2022-08-14T07:30:02;101343.44;;;25.82;40.87
69247;BME280;56358;56.328;43.992;2022-08-14T07:32:04;101341.84;;;25.94;40.93
69247;BME280;56358;56.328;43.992;2022-08-14T07:34:05;101321.78;;;25.93;40.88
69247;BME280;56358;56.328;43.992;2022-08-14T07:36:09;101343.94;;;26.20;40.13
69247;BME280;56358;56.328;43.992;2022-08-14T07:38:16;101281.13;;;25.82;37.69
69247;BME280;56358;56.328;43.992;2022-08-14T07:40:17;101338.09;;;26.02;38.46
69247;BME280;56358;56.328;43.992;2022-08-14T07:42:18;101343.72;;;26.15;38.95
69247;BME280;56358;56.328;43.992;2022-08-14T07:44:19;101341.00;;;26.22;39.05
69247;BME280;56358;56.328;43.992;2022-08-14T07:46:20;101338.91;;;26.31;40.07
69247;BME280;56358;56.328;43.992;2022-08-14T07:48:21;101277.88;;;26.00;41.34
69247;BME280;56358;56.328;43.992;2022-08-14T07:50:21;101337.69;;;26.40;40.31
69247;BME280;56358;56.328;43.992;2022-08-14T07:52:23;101276.47;;;26.11;40.22
69247;BME280;56358;56.328;43.992;2022-08-14T07:54:24;101332.00;;;26.41;39.91
69247;BME280;56358;56.328;43.992;2022-08-14T07:56:28;101341.34;;;26.47;39.99
69247;BME280;56358;56.328;43.992;2022-08-14T07:58:29;101337.53;;;26.55;40.02
69247;BME280;56358;56.328;43.992;2022-08-14T08:00:30;101325.75;;;26.61;39.85
69247;BME280;56358;56.328;43.992;2022-08-14T08:02:31;101317.03;;;26.57;40.84
69247;BME280;56358;56.328;43.992;2022-08-14T08:04:32;101320.63;;;26.51;43.20
69247;BME280;56358;56.328;43.992;2022-08-14T08:06:34;101328.66;;;26.53;42.68
69247;BME280;56358;56.328;43.992;2022-08-14T08:08:37;101335.00;;;26.53;41.28
69247;BME280;56358;56.328;43.992;2022-08-14T08:10:38;101336.13;;;26.59;40.41
69247;BME280;56358;56.328;43.992;2022-08-14T08:12:41;101333.19;;;26.67;39.89
69247;BME280;56358;56.328;43.992;2022-08-14T08:14:42;101332.16;;;26.75;40.16
69247;BME280;56358;56.328;43.992;2022-08-14T08:16:45;101312.91;;;26.75;39.38
69247;BME280;56358;56.328;43.992;2022-08-14T08:18:49;101326.50;;;26.90;39.63
69247;BME280;56358;56.328;43.992;2022-08-14T08:20:52;101286.81;;;26.64;39.66
69247;BME280;56358;56.328;43.992;2022-08-14T08:22:54;101313.81;;;26.89;39.22
69247;BME280;56358;56.328;43.992;2022-08-14T08:24:57;101237.69;;;26.41;39.20
69247;BME280;56358;56.328;43.992;2022-08-14T08:26:58;101321.44;;;27.00;40.18
69247;BME280;56358;56.328;43.992;2022-08-14T08:28:59;101327.16;;;27.05;40.28
69247;BME280;56358;56.328;43.992;2022-08-14T08:31:02;101252.56;;;26.67;40.43
69247;BME280;56358;56.328;43.992;2022-08-14T08:33:05;101320.19;;;27.16;39.86
69247;BME280;56358;56.328;43.992;2022-08-14T08:35:26;101315.56;;;27.23;40.31
69247;BME280;56358;56.328;43.992;2022-08-14T08:37:28;101234.44;;;26.79;40.72
69247;BME280;56358;56.328;43.992;2022-08-14T08:39:28;101332.47;;;27.20;41.01
69247;BME280;56358;56.328;43.992;2022-08-14T08:41:39;101310.22;;;27.15;40.12
69247;BME280;56358;56.328;43.992;2022-08-14T08:43:39;101254.97;;;26.76;40.21
69247;BME280;56358;56.328;43.992;2022-08-14T08:45:40;101310.44;;;27.00;40.93
69247;BME280;56358;56.328;43.992;2022-08-14T08:47:42;101313.38;;;26.85;40.65
69247;BME280;56358;56.328;43.992;2022-08-14T08:49:42;101308.53;;;26.94;40.79
69247;BME280;56358;56.328;43.992;2022-08-14T08:51:44;101308.28;;;26.82;40.67
69247;BME280;56358;56.328;43.992;2022-08-14T08:53:45;101315.50;;;26.83;41.16
69247;BME280;56358;56.328;43.992;2022-08-14T08:55:45;101317.28;;;26.63;41.08
69247;BME280;56358;56.328;43.992;2022-08-14T08:57:46;101301.75;;;26.41;41.70
69247;BME280;56358;56.328;43.992;2022-08-14T08:59:47;101311.13;;;26.54;41.79
69247;BME280;56358;56.328;43.992;2022-08-14T09:01:52;101311.38;;;26.66;41.29
69247;BME280;56358;56.328;43.992;2022-08-14T09:04:00;101293.59;;;26.68;40.42
69247;BME280;56358;56.328;43.992;2022-08-14T09:06:03;101306.16;;;26.84;40.58
69247;BME280;56358;56.328;43.992;2022-08-14T09:08:16;101311.69;;;27.04;39.37
69247;BME280;56358;56.328;43.992;2022-08-14T09:10:18;101301.38;;;27.20;39.14
69247;BME280;56358;56.328;43.992;2022-08-14T09:12:21;101312.41;;;27.40;38.64
69247;BME280;56358;56.328;43.992;2022-08-14T09:14:24;101306.69;;;27.55;37.76
69247;BME280;56358;56.328;43.992;2022-08-14T09:16:26;101301.81;;;27.70;37.93
69247;BME280;56358;56.328;43.992;2022-08-14T09:18:27;101290.34;;;27.87;37.43
69247;BME280;56358;56.328;43.992;2022-08-14T09:20:27;101295.00;;;28.00;37.00
69247;BME280;56358;56.328;43.992;2022-08-14T09:22:29;101294.31;;;28.18;36.75
69247;BME280;56358;56.328;43.992;2022-08-14T09:24:30;101305.22;;;28.51;37.14
69247;BME280;56358;56.328;43.992;2022-08-14T09:26:32;101308.66;;;28.85;35.58
69247;BME280;56358;56.328;43.992;2022-08-14T09:28:32;101294.44;;;29.20;35.73
69247;BME280;56358;56.328;43.992;2022-08-14T09:30:36;101301.81;;;28.95;36.08
69247;BME280;56358;56.328;43.992;2022-08-14T09:37:57;101288.88;;;29.52;35.55
69247;BME280;56358;56.328;43.992;2022-08-14T09:42:15;101287.09;;;30.39;32.76
69247;BME280;56358;56.328;43.992;2022-08-14T09:46:55;101271.19;;;30.83;31.56
69247;BME280;56358;56.328;43.992;2022-08-14T09:49:01;101270.47;;;31.18;30.10
69247;BME280;56358;56.328;43.992;2022-08-14T09:51:06;101264.72;;;31.55;29.33
69247;BME280;56358;56.328;43.992;2022-08-14T09:53:09;101267.63;;;31.84;29.35
69247;BME280;56358;56.328;43.992;2022-08-14T09:55:21;101283.50;;;32.24;28.78
69247;BME280;56358;56.328;43.992;2022-08-14T09:57:27;101242.88;;;31.95;28.88
69247;BME280;56358;56.328;43.992;2022-08-14T09:59:39;101227.09;;;32.07;28.27
69247;BME280;56358;56.328;43.992;2022-08-14T10:01:40;101277.03;;;32.48;28.21
69247;BME280;56358;56.328;43.992;2022-08-14T10:03:54;101269.94;;;32.40;28.90
69247;BME280;56358;56.328;43.992;2022-08-14T10:06:08;101260.81;;;32.28;28.87
69247;BME280;56358;56.328;43.992;2022-08-14T10:08:17;101272.31;;;32.48;27.80
69247;BME280;56358;56.328;43.992;2022-08-14T10:10:37;101283.81;;;32.81;28.68
69247;BME280;56358;56.328;43.992;2022-08-14T10:12:42;101248.56;;;32.69;27.49
69247;BME280;56358;56.328;43.992;2022-08-14T10:14:43;101234.94;;;32.68;26.97
69247;BME280;56358;56.328;43.992;2022-08-14T10:16:46;101288.38;;;33.21;27.26
69247;BME280;56358;56.328;43.992;2022-08-14T10:18:48;101265.44;;;33.25;26.22
69247;BME280;56358;56.328;43.992;2022-08-14T10:20:55;101272.78;;;33.71;28.04
69247;BME280;56358;56.328;43.992;2022-08-14T10:23:08;101276.41;;;33.88;25.56
69247;BME280;56358;56.328;43.992;2022-08-14T10:25:10;101275.19;;;34.01;25.26
69247;BME280;56358;56.328;43.992;2022-08-14T10:27:18;101283.97;;;34.15;25.48
69247;BME280;56358;56.328;43.992;2022-08-14T10:29:30;101273.22;;;34.24;25.38
69247;BME280;56358;56.328;43.992;2022-08-14T10:31:31;101231.06;;;34.10;25.00
69247;BME280;56358;56.328;43.992;2022-08-14T10:33:33;101255.06;;;34.38;25.26
69247;BME280;56358;56.328;43.992;2022-08-14T10:35:43;101262.72;;;34.53;25.06
69247;BME280;56358;56.328;43.992;2022-08-14T10:37:48;101271.66;;;34.78;24.68
69247;BME280;56358;56.328;43.992;2022-08-14T10:40:00;101222.66;;;34.54;24.46
69247;BME280;56358;56.328;43.992;2022-08-14T10:42:12;101262.03;;;34.90;23.74
69247;BME280;56358;56.328;43.992;2022-08-14T10:44:20;101264.03;;;34.95;23.78
69247;BME280;56358;56.328;43.992;2022-08-14T10:46:21;101241.25;;;34.76;24.54
69247;BME280;56358;56.328;43.992;2022-08-14T10:48:22;101260.34;;;34.89;24.98
69247;BME280;56358;56.328;43.992;2022-08-14T10:50:34;101273.81;;;34.98;23.85
69247;BME280;56358;56.328;43.992;2022-08-14T10:52:35;101179.16;;;34.75;24.16